Offerle, Kansas
Current Conditions -  °F | °C
As of 9:52 AM on Wednesday 26 Nov 2014 (Local Time) from KDDC Reporting Station
Broken Clouds Broken Clouds  
Wind Chill: 30°   Ceiling: 8000
Heat Index: 41°   Visibility: 10mi
Dew Point: 25°   Wind: 29mph
Humidity: 53%   Direction: 320°NW
Pressure: 30.23"   Gusts: 36mph
Location:  37.89°N, 99.56°W
Report Text: KDDC 261552Z AUTO 32025G31KT 10SM BKN080 05/M04 A3023 RMK AO2 PK WND 32032/1542 SLP246 T00501039
Loading
Personal Weather Stations






























Interactive Weather Map New forecast layout! Learn more

10-Day Weather Forecast

Advertisements
Track Severe Weather on mobile